createdAt,value
2023-11-15T00:13:40.458Z,12.47
2023-11-15T00:29:17.622Z,12.42
2023-11-15T00:44:54.674Z,12.40
2023-11-15T01:00:35.605Z,12.43
2023-11-15T01:16:13.989Z,12.41
2023-11-15T01:31:50.712Z,12.41
2023-11-15T01:47:27.736Z,12.41
2023-11-15T02:03:05.073Z,12.39
2023-11-15T02:18:41.908Z,12.14
2023-11-15T02:34:19.033Z,12.11
2023-11-15T02:49:55.890Z,12.15
2023-11-15T03:05:32.991Z,12.14
2023-11-15T03:21:12.122Z,12.09
2023-11-15T03:36:49.989Z,12.05
2023-11-15T03:52:27.106Z,11.97
2023-11-15T04:08:04.112Z,12.01
2023-11-15T04:23:42.210Z,11.98
2023-11-15T04:39:19.257Z,11.95
2023-11-15T04:54:56.369Z,11.82
2023-11-15T05:10:33.303Z,11.74
2023-11-15T05:26:10.332Z,11.77
2023-11-15T05:41:47.581Z,11.69
2023-11-15T05:57:21.628Z,11.57
2023-11-15T06:12:50.520Z,11.37
2023-11-15T06:28:27.741Z,11.12
2023-11-15T06:44:04.652Z,11.01
2023-11-15T06:59:41.840Z,10.78
2023-11-15T07:15:23.921Z,10.61
2023-11-15T07:31:03.702Z,10.48
2023-11-15T07:46:40.910Z,10.30
2023-11-15T08:02:17.814Z,10.26
2023-11-15T08:17:56.558Z,9.66
2023-11-15T08:33:36.962Z,9.29
2023-11-15T08:49:17.718Z,9.15
2023-11-15T09:04:58.952Z,9.12
2023-11-15T09:20:37.082Z,8.99
2023-11-15T09:36:07.142Z,8.88
2023-11-15T09:51:31.233Z,8.83
2023-11-15T10:07:08.327Z,9.02
2023-11-15T10:22:46.270Z,9.63
2023-11-15T10:38:23.460Z,9.47
2023-11-15T10:54:01.315Z,8.70
2023-11-15T11:10:06.558Z,8.56
2023-11-15T11:25:47.386Z,8.42
2023-11-15T11:41:33.432Z,8.53
2023-11-15T11:57:11.544Z,8.61
2023-11-15T12:12:49.476Z,8.62
2023-11-15T12:28:29.508Z,8.49
2023-11-15T12:44:20.579Z,8.32
2023-11-15T12:59:59.639Z,8.39
2023-11-15T13:15:36.692Z,8.36
2023-11-15T13:31:18.286Z,8.31
2023-11-15T13:46:56.793Z,8.48
2023-11-15T14:02:34.987Z,8.41
2023-11-15T14:18:12.115Z,8.30
2023-11-15T14:33:48.974Z,8.19
2023-11-15T14:49:26.178Z,7.97
2023-11-15T15:05:02.995Z,7.95
2023-11-15T15:20:39.992Z,7.93
2023-11-15T15:36:11.220Z,7.86
2023-11-15T15:51:34.214Z,7.78
2023-11-15T16:07:12.184Z,7.79
2023-11-15T16:22:49.194Z,7.88
2023-11-15T16:38:26.303Z,7.90
2023-11-15T16:54:03.555Z,7.77
2023-11-15T17:09:40.661Z,7.62
2023-11-15T17:25:20.421Z,7.60
2023-11-15T17:40:57.417Z,7.57
2023-11-15T17:56:34.489Z,7.58
2023-11-15T18:12:14.653Z,7.41
2023-11-15T18:27:53.554Z,7.29
2023-11-15T18:43:30.585Z,7.27
2023-11-15T18:59:09.611Z,7.01
2023-11-15T19:14:46.910Z,6.73
2023-11-15T19:30:24.779Z,6.58
2023-11-15T19:46:04.085Z,6.40
2023-11-15T20:01:41.886Z,6.20
2023-11-15T20:17:18.892Z,6.40
2023-11-15T20:32:56.654Z,6.57
2023-11-15T20:48:36.095Z,6.30
2023-11-15T21:04:28.145Z,5.77
2023-11-15T21:20:05.032Z,5.29
2023-11-15T21:35:42.126Z,4.69
2023-11-15T21:51:19.155Z,3.76
2023-11-15T22:07:02.152Z,3.69
2023-11-15T22:22:42.279Z,4.03
2023-11-15T22:38:19.315Z,4.14
2023-11-15T22:53:56.357Z,3.94
2023-11-15T23:09:33.464Z,3.81
2023-11-15T23:25:10.418Z,3.86
2023-11-15T23:40:47.427Z,3.69
2023-11-15T23:56:26.519Z,3.32
